Rocky Ford, Georgia
Current Conditions -  °F | °C
As of 5:35 PM on Friday 19 Dec 2014 (Local Time) from KJYL Reporting Station
Clear Clear  
Wind Chill: 54°   Ceiling: Unl
Heat Index: 54°   Visibility: 10mi
Dew Point: 48°   Wind: 0mph
Humidity: 79%   Direction: NA
Pressure: 30.11"   Gusts: NA
Location:  32.66°N, 81.83°W
Report Text: KJYL 192235Z AUTO 00000KT 10SM CLR 12/09 A3011 RMK AO2 T01240088
Loading
Personal Weather Stations






























Interactive Weather Map New forecast layout! Learn more

10-Day Weather Forecast

Advertisements
Track Severe Weather on mobile